Time;durP1;ratioP1;P1;durP2;ratioP2;P2;SDS_P1;SDS_P2;PMS_P1;PMS_P2;Temp;Humidity;BMP_temperature;BMP_pressure;BME280_temperature;BME280_humidity;BME280_pressure;Samples;Min_cycle;Max_cycle;Signal;HPM_P1;HPM_P2
2023/09/24 00:00:14;;;;;;;6.97;1.10;;;;;;;15.43;75.73;101517.03;7361556;19;20038;-65
2023/09/24 00:02:42;;;;;;;7.20;1.40;;;;;;;15.41;75.99;101515.38;7362155;19;20017;-63
2023/09/24 00:05:12;;;;;;;5.63;1.10;;;;;;;15.39;76.30;101524.47;7356504;19;20504;-64
2023/09/24 00:07:40;;;;;;;5.38;1.00;;;;;;;15.40;76.75;101526.16;7360228;19;20038;-65
2023/09/24 00:10:08;;;;;;;4.68;1.30;;;;;;;15.40;76.07;101524.31;7359093;19;20018;-65
2023/09/24 00:12:36;;;;;;;6.25;1.02;;;;;;;15.41;75.85;101526.00;7355614;19;20506;-65
2023/09/24 00:15:04;;;;;;;5.85;0.70;;;;;;;15.44;75.71;101514.19;7356812;19;20010;-65
2023/09/24 00:17:32;;;;;;;4.20;1.10;;;;;;;15.43;75.63;101523.19;7355777;19;20553;-65
2023/09/24 00:20:00;;;;;;;5.15;1.02;;;;;;;15.44;75.69;101516.06;7360103;19;20514;-65
2023/09/24 00:22:27;;;;;;;6.03;1.02;;;;;;;15.47;77.31;101515.72;7354893;19;21552;-65
2023/09/24 00:24:56;;;;;;;14.25;2.30;;;;;;;15.48;77.10;101515.56;7356002;19;20011;-66
2023/09/24 00:27:23;;;;;;;4.93;0.93;;;;;;;15.51;75.82;101517.03;7355048;19;20142;-64
2023/09/24 00:29:51;;;;;;;5.72;0.75;;;;;;;15.49;75.58;101521.69;7359777;19;20033;-65
2023/09/24 00:32:18;;;;;;;11.63;1.20;;;;;;;15.50;75.48;101512.72;7357483;19;20018;-65
2023/09/24 00:34:46;;;;;;;7.28;0.95;;;;;;;15.49;75.46;101521.69;7359818;19;20030;-65
2023/09/24 00:37:14;;;;;;;7.63;1.02;;;;;;;15.47;75.36;101526.31;7355846;19;20045;-65
2023/09/24 00:39:41;;;;;;;7.47;0.98;;;;;;;15.46;76.49;101520.19;7359996;19;20006;-64
2023/09/24 00:42:09;;;;;;;4.05;1.05;;;;;;;15.44;77.01;101524.81;7356980;19;20596;-65
2023/09/24 00:44:37;;;;;;;5.45;0.75;;;;;;;15.42;76.74;101518.88;7358195;19;20415;-65
2023/09/24 00:47:05;;;;;;;6.05;0.90;;;;;;;15.38;77.41;101531.63;7359318;19;20021;-65
2023/09/24 00:49:33;;;;;;;4.97;0.90;;;;;;;15.43;77.66;101532.97;7360918;19;20351;-65
2023/09/24 00:52:00;;;;;;;7.57;1.05;;;;;;;15.36;77.12;101528.31;7357353;19;20333;-65
2023/09/24 00:54:29;;;;;;;7.70;1.20;;;;;;;15.36;77.31;101520.34;7357818;19;20011;-65
2023/09/24 00:56:58;;;;;;;5.25;0.90;;;;;;;15.39;78.05;101511.22;7352317;19;20033;-65
2023/09/24 00:59:28;;;;;;;5.03;0.93;;;;;;;15.41;77.12;101514.56;7359249;19;20006;-65
2023/09/24 01:01:58;;;;;;;4.47;1.00;;;;;;;15.39;77.39;101504.09;7352670;19;20018;-65
2023/09/24 01:04:27;;;;;;;6.40;1.05;;;;;;;15.39;77.02;101501.44;7192159;19;3168293;-65
2023/09/24 01:06:55;;;;;;;7.65;1.40;;;;;;;15.38;77.26;101501.63;7358574;19;20142;-67
2023/09/24 01:09:22;;;;;;;7.13;0.85;;;;;;;15.39;77.43;101500.63;7362818;19;20006;-66
2023/09/24 01:11:52;;;;;;;8.07;1.40;;;;;;;15.41;78.60;101494.16;7355867;19;20022;-64
2023/09/24 01:14:20;;;;;;;6.95;0.80;;;;;;;15.42;77.82;101497.66;7360469;19;20041;-64
2023/09/24 01:16:48;;;;;;;2.92;0.73;;;;;;;15.44;77.74;101508.09;7357899;19;20022;-65
2023/09/24 01:19:15;;;;;;;10.80;1.08;;;;;;;15.42;77.62;101497.66;7361699;19;20011;-66
2023/09/24 01:21:44;;;;;;;5.88;0.70;;;;;;;15.40;77.76;101495.16;7358541;19;20090;-64
2023/09/24 01:24:12;;;;;;;4.45;0.80;;;;;;;15.40;78.10;101491.66;7357951;19;20023;-66
2023/09/24 01:26:39;;;;;;;6.13;1.10;;;;;;;15.38;78.31;101493.69;7358164;19;20882;-65
2023/09/24 01:29:09;;;;;;;5.85;0.90;;;;;;;15.39;78.56;101488.19;7362795;19;20656;-65
2023/09/24 01:31:38;;;;;;;6.00;0.82;;;;;;;15.40;78.28;101484.53;7356476;19;20741;-65
2023/09/24 01:34:05;;;;;;;4.20;0.93;;;;;;;15.38;78.42;101483.91;7361521;19;20014;-65
2023/09/24 01:36:33;;;;;;;3.92;0.65;;;;;;;15.39;79.29;101474.09;7359146;19;20510;-65
2023/09/24 01:39:01;;;;;;;5.50;0.80;;;;;;;15.38;79.59;101478.59;7356454;19;20011;-66
2023/09/24 01:41:31;;;;;;;8.10;1.00;;;;;;;15.37;79.74;101478.75;7352455;19;20581;-64
2023/09/24 01:43:59;;;;;;;5.15;1.17;;;;;;;15.39;80.60;101477.56;7358155;19;20018;-65
2023/09/24 01:46:27;;;;;;;6.30;0.90;;;;;;;15.42;80.64;101468.47;7357143;19;20019;-64
2023/09/24 01:48:55;;;;;;;3.83;1.45;;;;;;;15.41;80.34;101472.94;7358352;19;20362;-65
2023/09/24 01:51:23;;;;;;;3.80;0.75;;;;;;;15.41;80.15;101478.25;7356944;19;20455;-65
2023/09/24 01:53:51;;;;;;;4.43;1.05;;;;;;;15.43;80.28;101469.31;7360208;19;20017;-65
2023/09/24 01:56:19;;;;;;;6.40;0.73;;;;;;;15.42;81.00;101468.47;7356774;19;20520;-66
2023/09/24 01:58:49;;;;;;;6.63;0.70;;;;;;;15.43;80.99;101471.97;7355144;19;20033;-65
2023/09/24 02:01:17;;;;;;;5.60;0.90;;;;;;;15.45;82.36;101472.59;7356632;19;20007;-65
2023/09/24 02:03:46;;;;;;;5.40;1.33;;;;;;;15.47;82.11;101475.91;7356417;19;20014;-64
2023/09/24 02:06:15;;;;;;;6.63;0.70;;;;;;;15.48;82.03;101478.41;7356998;19;20030;-65
2023/09/24 02:08:43;;;;;;;5.32;0.90;;;;;;;15.49;81.00;101468.63;7358084;19;20047;-64
2023/09/24 02:11:10;;;;;;;7.07;1.45;;;;;;;15.51;80.42;101478.09;7354494;19;20022;-64
2023/09/24 02:13:38;;;;;;;6.15;0.82;;;;;;;15.51;80.81;101477.22;7357205;19;20029;-66
2023/09/24 02:16:07;;;;;;;7.57;0.80;;;;;;;15.49;80.79;101473.94;7359291;19;20381;-65
2023/09/24 02:18:36;;;;;;;3.25;0.90;;;;;;;15.52;81.35;101463.84;7357119;19;20010;-66
2023/09/24 02:21:14;;;;;;;4.07;0.68;;;;;;;15.54;81.90;101458.38;7358497;19;20040;-65
2023/09/24 02:23:42;;;;;;;7.15;1.45;;;;;;;15.55;82.01;101467.97;7357330;19;20017;-66
2023/09/24 02:26:13;;;;;;;7.05;1.15;;;;;;;15.56;81.78;101466.97;7352091;19;20019;-65
2023/09/24 02:28:40;;;;;;;5.13;0.88;;;;;;;15.55;82.19;101457.34;7356367;19;20332;-65
2023/09/24 02:31:11;;;;;;;4.35;0.93;;;;;;;15.56;81.51;101459.84;7357574;19;20086;-65
2023/09/24 02:33:39;;;;;;;6.70;0.98;;;;;;;15.58;81.93;101452.56;7358256;19;20463;-67
2023/09/24 02:36:08;;;;;;;8.48;1.02;;;;;;;15.61;82.47;101456.69;7355711;19;20011;-65
2023/09/24 02:38:35;;;;;;;4.50;1.27;;;;;;;15.62;82.74;101450.38;7355515;19;20014;-65
2023/09/24 02:41:04;;;;;;;9.63;1.48;;;;;;;15.61;82.96;101444.25;7356025;19;21780;-66
2023/09/24 02:43:32;;;;;;;7.43;1.02;;;;;;;15.63;83.11;101442.25;7353950;19;20018;-64
2023/09/24 02:46:00;;;;;;;7.03;0.90;;;;;;;15.64;83.27;101438.63;7356965;19;20011;-66
2023/09/24 02:48:27;;;;;;;7.97;1.20;;;;;;;15.62;83.02;101445.91;7355255;19;20070;-66
2023/09/24 02:50:56;;;;;;;11.13;1.27;;;;;;;15.66;83.15;101438.44;7361726;19;20045;-65
2023/09/24 02:53:23;;;;;;;10.50;0.98;;;;;;;15.68;83.87;101439.94;7366002;19;20450;-65
2023/09/24 02:55:51;;;;;;;7.43;1.17;;;;;;;15.70;83.63;101437.09;7362762;19;20533;-66
2023/09/24 02:58:19;;;;;;;5.78;1.00;;;;;;;15.72;83.59;101437.75;7360467;19;20063;-65
2023/09/24 03:00:46;;;;;;;6.53;1.00;;;;;;;15.76;84.22;101439.88;7364369;19;20030;-66
2023/09/24 03:03:15;;;;;;;8.57;1.08;;;;;;;15.79;84.14;101441.38;7360838;19;20018;-66
2023/09/24 03:05:43;;;;;;;5.85;0.82;;;;;;;15.81;84.39;101442.03;7364794;19;20011;-64
2023/09/24 03:08:15;;;;;;;9.55;1.05;;;;;;;15.82;84.53;101433.06;7364237;19;20030;-65
2023/09/24 03:10:43;;;;;;;4.85;0.70;;;;;;;15.86;84.65;101430.88;7360008;19;20006;-65
2023/09/24 03:13:10;;;;;;;6.50;1.10;;;;;;;15.87;84.39;101427.25;7358309;19;20018;-65
2023/09/24 03:15:38;;;;;;;7.57;0.90;;;;;;;15.87;84.31;101425.41;7365944;19;20010;-65
2023/09/24 03:18:06;;;;;;;5.78;0.80;;;;;;;15.89;84.33;101428.75;7363253;19;20022;-65
2023/09/24 03:20:34;;;;;;;6.07;1.17;;;;;;;15.92;84.19;101425.72;7365687;19;20017;-63
2023/09/24 03:23:08;;;;;;;9.75;1.00;;;;;;;15.96;84.09;101421.72;7364063;19;20037;-65
2023/09/24 03:25:36;;;;;;;8.18;0.98;;;;;;;16.03;85.05;101424.53;7356109;19;20017;-65
2023/09/24 03:28:04;;;;;;;6.45;1.02;;;;;;;16.08;84.97;101416.84;7355766;19;20368;-65
2023/09/24 03:30:32;;;;;;;7.78;1.20;;;;;;;16.11;84.51;101421.81;7360872;19;20044;-70
2023/09/24 03:33:00;;;;;;;6.07;0.82;;;;;;;16.13;84.28;101417.16;7362302;19;20010;-66
2023/09/24 03:35:28;;;;;;;6.95;1.00;;;;;;;16.17;84.54;101423.78;7361913;19;20352;-65
2023/09/24 03:37:56;;;;;;;7.03;1.00;;;;;;;16.17;85.00;101421.13;7359866;19;20046;-66
2023/09/24 03:40:26;;;;;;;7.63;1.20;;;;;;;16.17;85.29;101408.66;7363875;19;20029;-69
2023/09/24 03:42:54;;;;;;;6.93;1.23;;;;;;;16.21;86.25;101399.34;7356003;19;20370;-65
2023/09/24 03:45:23;;;;;;;8.82;2.35;;;;;;;16.25;86.03;101413.13;7361612;19;20024;-66
2023/09/24 03:47:52;;;;;;;7.68;1.08;;;;;;;16.27;86.24;101411.09;7357622;19;20087;-65
2023/09/24 03:50:19;;;;;;;8.43;1.25;;;;;;;16.26;86.53;101407.63;7360934;19;20022;-67
2023/09/24 03:52:49;;;;;;;10.77;1.00;;;;;;;16.26;86.22;101407.63;7361582;19;20668;-65
2023/09/24 03:55:18;;;;;;;10.38;1.15;;;;;;;16.24;86.15;101399.00;7365350;19;20018;-65
2023/09/24 03:57:47;;;;;;;8.10;1.25;;;;;;;16.25;86.45;101390.03;7358425;19;20018;-65
2023/09/24 04:00:18;;;;;;;7.07;0.98;;;;;;;16.30;87.71;101394.00;7358846;19;20010;-65
2023/09/24 04:02:48;;;;;;;8.88;1.02;;;;;;;16.30;87.08;101389.53;7359399;19;20613;-65
2023/09/24 04:05:19;;;;;;;9.32;1.58;;;;;;;16.29;86.95;101379.91;7359966;19;20027;-66
2023/09/24 04:07:50;;;;;;;7.80;1.13;;;;;;;16.31;87.01;101379.69;7359947;19;20045;-66
2023/09/24 04:10:20;;;;;;;5.97;1.00;;;;;;;16.29;87.07;101387.88;7360537;19;20014;-65
2023/09/24 04:12:51;;;;;;;7.68;1.38;;;;;;;16.30;87.13;101386.88;7359803;19;20011;-65
2023/09/24 04:15:21;;;;;;;9.23;1.17;;;;;;;16.31;87.56;101382.34;7360477;19;20015;-65
2023/09/24 04:17:50;;;;;;;8.98;1.10;;;;;;;16.33;88.82;101394.47;7359550;19;20046;-65
2023/09/24 04:20:20;;;;;;;5.88;1.33;;;;;;;16.32;88.54;101387.50;7361786;19;20490;-66
2023/09/24 04:22:49;;;;;;;7.43;1.65;;;;;;;16.31;88.39;101396.47;7362139;19;20502;-66
2023/09/24 04:25:20;;;;;;;10.10;1.10;;;;;;;16.31;88.20;101396.47;7358943;19;20034;-64
2023/09/24 04:27:48;;;;;;;8.98;1.33;;;;;;;16.30;88.58;101399.31;7352556;19;20061;-65
2023/09/24 04:30:16;;;;;;;9.68;1.30;;;;;;;16.29;88.81;101401.13;7360909;19;20014;-64
2023/09/24 04:32:48;;;;;;;12.27;1.58;;;;;;;16.28;89.43;101402.13;7358423;19;21948;-66
2023/09/24 04:35:19;;;;;;;8.45;1.30;;;;;;;16.30;90.20;101408.13;7363052;19;20014;-65
2023/09/24 04:37:48;;;;;;;13.50;1.40;;;;;;;16.32;90.00;101411.41;7358153;19;20482;-65
2023/09/24 04:40:15;;;;;;;10.95;1.25;;;;;;;16.33;89.80;101406.91;7362563;19;20010;-65
2023/09/24 04:42:45;;;;;;;9.40;2.28;;;;;;;16.31;89.74;101412.41;7355437;19;20018;-65
2023/09/24 04:45:14;;;;;;;10.60;1.25;;;;;;;16.31;90.01;101417.72;7360586;19;20011;-66
2023/09/24 04:47:42;;;;;;;9.55;1.33;;;;;;;16.31;90.04;101414.22;7358847;19;20023;-64
2023/09/24 04:50:12;;;;;;;14.27;2.67;;;;;;;16.33;90.52;101409.56;7362503;19;20346;-65
2023/09/24 04:52:44;;;;;;;11.30;1.25;;;;;;;16.35;90.94;101404.94;7360450;19;20703;-70
2023/09/24 04:55:13;;;;;;;8.50;1.33;;;;;;;16.34;90.85;101409.41;7359149;19;20068;-65
2023/09/24 04:57:45;;;;;;;7.75;1.38;;;;;;;16.34;90.72;101409.41;7356320;19;20014;-66
2023/09/24 05:00:15;;;;;;;11.03;1.30;;;;;;;16.33;90.82;101413.06;7357591;19;20022;-65
2023/09/24 05:02:43;;;;;;;9.73;1.40;;;;;;;16.31;90.77;101406.25;7357463;19;20029;-66
2023/09/24 05:05:11;;;;;;;7.45;1.52;;;;;;;16.32;91.13;101413.22;7359214;19;20019;-65
2023/09/24 05:07:39;;;;;;;10.75;2.05;;;;;;;16.34;92.14;101412.06;7362149;19;20014;-66
2023/09/24 05:10:08;;;;;;;10.23;1.05;;;;;;;16.34;92.02;101403.28;7357601;19;20047;-66
2023/09/24 05:12:35;;;;;;;9.65;1.35;;;;;;;16.36;92.12;101406.56;7354907;19;20015;-65
2023/09/24 05:15:04;;;;;;;10.18;1.27;;;;;;;16.36;91.81;101412.69;7355627;19;20923;-65
2023/09/24 05:17:33;;;;;;;11.15;1.90;;;;;;;16.36;91.99;101410.03;7362993;19;20633;-64
2023/09/24 05:20:02;;;;;;;10.10;1.02;;;;;;;16.38;92.20;101412.53;7362611;19;20463;-64
2023/09/24 05:22:30;;;;;;;7.45;0.98;;;;;;;16.41;92.37;101412.16;7360444;19;20380;-65
2023/09/24 05:24:57;;;;;;;13.63;2.33;;;;;;;16.43;92.90;101420.81;7361783;19;20086;-67
2023/09/24 05:27:29;;;;;;;6.13;1.27;;;;;;;16.46;93.23;101423.91;7355138;19;20049;-65
2023/09/24 05:29:56;;;;;;;8.95;0.98;;;;;;;16.49;93.43;101420.94;7357320;19;20023;-65
2023/09/24 05:32:24;;;;;;;9.70;1.40;;;;;;;16.48;93.17;101427.25;7360143;19;20010;-64
2023/09/24 05:34:53;;;;;;;8.63;0.95;;;;;;;16.50;92.99;101433.22;7359955;19;20014;-66
2023/09/24 05:37:21;;;;;;;8.50;1.13;;;;;;;16.51;93.34;101434.84;7361277;19;20026;-65
2023/09/24 05:39:49;;;;;;;12.60;1.65;;;;;;;16.53;93.36;101437.34;7354886;19;20018;-65
2023/09/24 05:42:17;;;;;;;10.95;1.38;;;;;;;16.57;93.67;101439.47;7356356;19;20007;-64
2023/09/24 05:44:44;;;;;;;6.57;0.88;;;;;;;16.60;93.90;101431.19;7358273;19;20022;-66
2023/09/24 05:47:12;;;;;;;11.98;1.00;;;;;;;16.64;93.73;101436.97;7357563;19;20029;-65
2023/09/24 05:49:39;;;;;;;10.20;1.65;;;;;;;16.65;93.53;101430.66;7357920;19;20367;-65
2023/09/24 05:52:06;;;;;;;11.73;1.83;;;;;;;16.65;93.51;101436.78;7355342;19;20034;-65
2023/09/24 05:54:34;;;;;;;9.00;1.02;;;;;;;16.65;93.56;101428.81;7358853;19;20139;-65
2023/09/24 05:57:03;;;;;;;10.32;2.50;;;;;;;16.68;93.64;101438.25;7353619;19;20017;-64
2023/09/24 05:59:31;;;;;;;13.52;1.90;;;;;;;16.71;93.84;101443.19;7356897;19;20118;-65
2023/09/24 06:01:58;;;;;;;11.73;1.23;;;;;;;16.75;94.18;101449.00;7356397;19;20021;-65
2023/09/24 06:04:26;;;;;;;7.20;1.48;;;;;;;16.77;93.83;101447.81;7357064;19;20014;-65
2023/09/24 06:06:54;;;;;;;13.68;1.38;;;;;;;16.79;93.64;101445.00;7358327;19;20436;-65
2023/09/24 06:09:21;;;;;;;8.35;1.20;;;;;;;16.79;93.66;101437.00;7360950;19;20078;-65
2023/09/24 06:11:49;;;;;;;8.45;0.98;;;;;;;16.81;93.52;101441.13;7354483;19;20010;-66
2023/09/24 06:14:16;;;;;;;12.80;0.80;;;;;;;16.82;93.48;101436.66;7359917;19;20011;-65
2023/09/24 06:16:44;;;;;;;6.13;0.98;;;;;;;16.85;93.71;101439.78;7357483;19;20018;-66
2023/09/24 06:19:12;;;;;;;7.07;0.98;;;;;;;16.88;94.35;101444.75;7357790;19;20020;-65
2023/09/24 06:21:39;;;;;;;10.68;1.27;;;;;;;16.91;94.10;101444.41;7355083;19;20025;-64
2023/09/24 06:24:07;;;;;;;7.07;1.73;;;;;;;16.95;94.09;101443.03;7354732;19;20010;-64
2023/09/24 06:26:35;;;;;;;15.45;1.52;;;;;;;16.96;93.93;101449.19;7351221;19;20020;-65
2023/09/24 06:29:02;;;;;;;8.18;0.93;;;;;;;16.97;93.84;101445.50;7355157;19;20206;-65
2023/09/24 06:31:38;;;;;;;10.48;1.48;;;;;;;16.98;94.25;101442.66;7357220;19;20205;-65
2023/09/24 06:34:06;;;;;;;13.38;1.42;;;;;;;17.01;94.29;101434.34;7357428;19;20022;-65
2023/09/24 06:36:34;;;;;;;12.82;1.20;;;;;;;17.06;95.14;101436.47;7353670;19;20035;-66
2023/09/24 06:39:07;;;;;;;10.57;1.52;;;;;;;17.09;95.06;101436.91;7356113;19;20025;-66
2023/09/24 06:41:35;;;;;;;17.25;1.10;;;;;;;17.11;94.59;101439.41;7354141;19;20006;-66
2023/09/24 06:44:03;;;;;;;11.30;1.33;;;;;;;17.13;94.34;101442.69;7354972;19;20074;-65
2023/09/24 06:46:30;;;;;;;11.05;1.25;;;;;;;17.15;94.29;101447.84;7358637;19;20078;-65
2023/09/24 06:48:58;;;;;;;8.60;1.00;;;;;;;17.16;94.03;101447.66;7354232;19;20022;-65
2023/09/24 06:51:26;;;;;;;8.85;1.30;;;;;;;17.19;94.10;101452.63;7356384;19;20032;-65
2023/09/24 06:53:54;;;;;;;9.38;1.30;;;;;;;17.22;94.54;101449.59;7356384;19;20109;-65
2023/09/24 06:56:21;;;;;;;14.50;1.52;;;;;;;17.24;94.62;101450.25;7356472;19;20385;-66
2023/09/24 06:58:49;;;;;;;12.82;1.08;;;;;;;17.26;94.50;101444.75;7355894;19;20017;-63
2023/09/24 07:01:16;;;;;;;11.45;1.63;;;;;;;17.29;94.65;101460.34;7358096;19;20326;-64
2023/09/24 07:03:44;;;;;;;9.15;1.10;;;;;;;17.30;94.42;101452.19;7360038;19;20107;-67
2023/09/24 07:06:12;;;;;;;6.13;1.00;;;;;;;17.33;94.18;101449.16;7358868;19;20470;-65
2023/09/24 07:08:41;;;;;;;10.23;1.13;;;;;;;17.36;94.45;101440.00;7358715;19;20708;-65
2023/09/24 07:11:20;;;;;;;13.38;1.20;;;;;;;17.42;95.00;101441.94;7351724;19;20010;-65
2023/09/24 07:13:47;;;;;;;17.20;1.58;;;;;;;17.45;94.82;101437.06;7359214;19;20019;-65
2023/09/24 07:16:19;;;;;;;10.00;1.23;;;;;;;17.48;94.41;101443.84;7357890;19;20033;-65
2023/09/24 07:18:48;;;;;;;7.15;0.88;;;;;;;17.49;94.02;101441.00;7355247;19;20037;-65
2023/09/24 07:21:17;;;;;;;14.27;1.30;;;;;;;17.52;93.97;101451.28;7357296;19;20065;-65
2023/09/24 07:24:01;;;;;;;15.52;1.30;;;;;;;17.55;94.01;101444.78;7356321;19;20825;-65
2023/09/24 07:26:29;;;;;;;12.57;1.42;;;;;;;17.57;93.92;101447.25;7351823;19;20018;-65
2023/09/24 07:28:57;;;;;;;15.60;1.20;;;;;;;17.62;94.34;101453.72;7357690;19;20394;-65
2023/09/24 07:31:25;;;;;;;10.93;1.10;;;;;;;17.65;94.17;101447.19;7353820;19;20679;-66
2023/09/24 07:33:58;;;;;;;6.97;1.00;;;;;;;17.68;93.84;101455.63;7357144;19;20026;-65
2023/09/24 07:36:26;;;;;;;16.20;2.45;;;;;;;17.70;93.78;101442.16;7359271;19;20014;-65
2023/09/24 07:38:56;;;;;;;14.38;1.60;;;;;;;17.71;93.92;101433.16;7362869;19;20014;-67
2023/09/24 07:41:24;;;;;;;10.98;1.20;;;;;;;17.73;94.09;101431.13;7365339;19;20026;-65
2023/09/24 07:43:53;;;;;;;11.18;1.30;;;;;;;17.74;94.00;101446.09;7361101;19;20037;-64
2023/09/24 07:46:20;;;;;;;14.45;1.50;;;;;;;17.80;94.04;101451.50;7363159;19;20020;-64
2023/09/24 07:48:48;;;;;;;8.02;1.40;;;;;;;17.85;94.42;101441.13;7361613;19;20081;-65
2023/09/24 07:51:16;;;;;;;11.10;1.10;;;;;;;17.91;93.66;101443.06;7363768;19;20780;-64
2023/09/24 07:53:46;;;;;;;10.32;0.98;;;;;;;17.97;93.39;101430.84;7361151;19;20028;-64
2023/09/24 07:56:14;;;;;;;7.57;0.80;;;;;;;18.04;93.08;101438.88;7358337;19;20450;-65
2023/09/24 07:58:42;;;;;;;8.30;1.23;;;;;;;18.09;92.88;101437.31;7362823;19;20021;-64
2023/09/24 08:01:12;;;;;;;11.68;1.50;;;;;;;18.15;92.45;101441.06;7361194;19;20010;-66
2023/09/24 08:03:44;;;;;;;7.35;0.95;;;;;;;18.19;92.69;101432.53;7359061;19;20020;-64
2023/09/24 08:06:13;;;;;;;8.43;0.95;;;;;;;18.29;92.36;101440.22;7362642;19;20029;-65
2023/09/24 08:08:40;;;;;;;9.82;1.30;;;;;;;18.43;91.77;101431.38;7364224;19;20018;-65
2023/09/24 08:11:11;;;;;;;8.13;0.98;;;;;;;18.54;90.99;101432.75;7357549;19;20026;-66
2023/09/24 08:13:38;;;;;;;13.20;1.15;;;;;;;18.59;90.39;101439.13;7363164;19;20014;-66
2023/09/24 08:16:06;;;;;;;6.03;1.13;;;;;;;18.58;89.87;101437.50;7362609;19;20038;-64
2023/09/24 08:18:34;;;;;;;10.70;0.82;;;;;;;18.59;90.21;101444.47;7361394;19;20018;-65
2023/09/24 08:21:02;;;;;;;9.40;1.05;;;;;;;18.60;90.16;101437.28;7364598;19;20101;-65
2023/09/24 08:23:29;;;;;;;11.48;1.33;;;;;;;18.58;90.34;101439.34;7364545;19;20058;-65
2023/09/24 08:26:00;;;;;;;12.02;1.50;;;;;;;18.57;90.54;101443.00;7368670;19;20953;-64
2023/09/24 08:28:29;;;;;;;9.18;0.93;;;;;;;18.55;90.77;101442.38;7356989;19;20041;-65
2023/09/24 08:30:57;;;;;;;11.30;0.82;;;;;;;18.52;90.55;101448.88;7358529;19;20439;-66
2023/09/24 08:33:24;;;;;;;9.95;1.00;;;;;;;18.54;90.57;101448.72;7357946;19;20010;-65
2023/09/24 08:35:52;;;;;;;9.23;1.20;;;;;;;18.53;90.71;101445.22;7361930;19;20014;-65
2023/09/24 08:38:21;;;;;;;6.85;2.25;;;;;;;18.53;91.13;101450.53;7368154;19;21840;-65
2023/09/24 08:40:48;;;;;;;8.02;1.08;;;;;;;18.55;91.49;101447.69;7359255;19;20043;-65
2023/09/24 08:43:17;;;;;;;11.45;1.25;;;;;;;18.54;91.44;101454.88;7362320;19;20014;-64
2023/09/24 08:45:48;;;;;;;11.35;1.27;;;;;;;18.55;91.12;101456.53;7363777;19;20017;-64
2023/09/24 08:48:16;;;;;;;7.35;1.00;;;;;;;18.55;91.41;101464.50;7361623;19;20077;-64
2023/09/24 08:50:44;;;;;;;10.13;1.27;;;;;;;18.55;91.83;101461.03;7364064;19;20625;-64
2023/09/24 08:53:15;;;;;;;10.38;1.35;;;;;;;18.57;91.23;101451.84;7365159;19;20521;-65
2023/09/24 08:55:45;;;;;;;9.85;1.73;;;;;;;18.59;91.35;101457.78;7364785;19;20019;-64
2023/09/24 08:58:12;;;;;;;8.75;1.02;;;;;;;18.62;92.05;101456.59;7357808;19;21729;-65
2023/09/24 09:00:42;;;;;;;13.75;1.30;;;;;;;18.64;91.99;101449.25;7361085;19;20014;-65
2023/09/24 09:03:09;;;;;;;10.60;1.60;;;;;;;18.69;91.93;101452.16;7361740;19;20724;-65
2023/09/24 09:05:38;;;;;;;9.88;1.42;;;;;;;18.70;91.43;101443.13;7363167;19;20018;-64
2023/09/24 09:08:06;;;;;;;7.82;0.95;;;;;;;18.73;91.42;101440.09;7363706;19;20021;-65
2023/09/24 09:10:35;;;;;;;9.48;1.05;;;;;;;18.75;91.42;101446.88;7362093;19;20102;-64
2023/09/24 09:13:08;;;;;;;10.25;1.25;;;;;;;18.79;91.17;101447.34;7358802;19;20411;-64
2023/09/24 09:15:44;;;;;;;10.57;1.15;;;;;;;18.82;91.22;101443.44;7358201;19;20029;-64
2023/09/24 09:18:23;;;;;;;17.00;1.73;;;;;;;18.87;91.53;101443.69;7359430;19;20011;-65
2023/09/24 09:20:58;;;;;;;12.02;1.30;;;;;;;18.89;91.03;101442.50;7359814;19;20327;-65
2023/09/24 09:23:33;;;;;;;12.93;1.65;;;;;;;18.91;90.66;101439.63;7362095;19;20017;-64
2023/09/24 09:26:05;;;;;;;10.00;1.20;;;;;;;18.91;90.85;101448.47;7360800;19;20032;-64
2023/09/24 09:28:34;;;;;;;15.45;1.58;;;;;;;18.92;90.82;101441.28;7360411;19;20024;-65
2023/09/24 09:31:10;;;;;;;12.63;2.00;;;;;;;18.92;90.97;101449.28;7361851;19;20077;-66
2023/09/24 09:33:42;;;;;;;12.13;1.35;;;;;;;18.91;91.33;101448.47;7357747;19;20038;-65
2023/09/24 09:36:27;;;;;;;8.85;1.08;;;;;;;18.93;91.03;101445.59;7358345;19;20022;-67
2023/09/24 09:38:57;;;;;;;11.30;1.00;;;;;;;18.95;90.66;101441.72;7365288;19;20013;-65
2023/09/24 09:41:26;;;;;;;12.68;2.15;;;;;;;18.94;90.96;101449.94;7355116;19;20406;-64
2023/09/24 09:43:53;;;;;;;14.32;2.05;;;;;;;18.93;91.37;101440.28;7361221;19;20022;-66
2023/09/24 09:46:23;;;;;;;12.52;2.05;;;;;;;18.96;91.32;101438.03;7363364;19;20019;-66
2023/09/24 09:48:55;;;;;;;14.45;1.52;;;;;;;18.99;91.42;101445.69;7359521;19;20021;-64
2023/09/24 09:51:24;;;;;;;10.73;1.95;;;;;;;19.02;91.41;101439.94;7362609;19;20031;-66
2023/09/24 09:53:54;;;;;;;14.18;2.63;;;;;;;19.06;91.69;101438.53;7361153;19;20014;-66
2023/09/24 09:56:24;;;;;;;9.18;2.10;;;;;;;19.08;91.00;101436.50;7358376;19;20014;-65
2023/09/24 09:58:53;;;;;;;15.75;1.50;;;;;;;19.12;90.77;101437.75;7351698;19;20022;-65
2023/09/24 10:01:20;;;;;;;10.90;1.08;;;;;;;19.14;90.43;101440.25;7359465;19;20037;-64
2023/09/24 10:03:53;;;;;;;10.15;1.50;;;;;;;19.18;90.22;101433.50;7359309;19;20030;-65
2023/09/24 10:06:22;;;;;;;8.45;1.40;;;;;;;19.18;90.39;101431.66;7345399;19;20051;-65
2023/09/24 10:08:49;;;;;;;7.95;1.48;;;;;;;19.22;90.03;101429.41;7355905;19;20356;-66
2023/09/24 10:11:32;;;;;;;8.95;1.00;;;;;;;19.26;90.62;101436.00;7355006;19;20106;-65
2023/09/24 10:14:05;;;;;;;14.38;1.58;;;;;;;19.30;89.85;101436.47;7356031;19;20506;-65
2023/09/24 10:16:35;;;;;;;9.45;1.00;;;;;;;19.34;89.99;101437.72;7356375;19;20450;-64
2023/09/24 10:19:11;;;;;;;10.02;1.13;;;;;;;19.35;89.78;101432.16;7357694;19;20022;-64
2023/09/24 10:21:45;;;;;;;9.45;1.27;;;;;;;19.37;89.95;101440.81;7355367;19;21259;-64
2023/09/24 10:24:12;;;;;;;6.95;1.02;;;;;;;19.39;89.53;101445.97;7360751;19;20109;-65
2023/09/24 10:27:03;;;;;;;7.68;1.35;;;;;;;19.45;89.87;101450.56;7352790;19;20014;-64
2023/09/24 10:29:55;;;;;;;9.35;1.67;;;;;;;19.44;88.50;101444.41;7361502;19;20011;-65
2023/09/24 10:32:24;;;;;;;11.40;1.23;;;;;;;19.44;88.40;101441.72;7356028;19;20081;-65
2023/09/24 10:34:51;;;;;;;8.55;1.33;;;;;;;19.44;88.35;101438.19;7356272;19;20049;-67
2023/09/24 10:37:22;;;;;;;7.70;1.20;;;;;;;19.44;88.75;101435.53;7355383;19;20018;-66
2023/09/24 10:40:05;;;;;;;13.77;1.15;;;;;;;19.47;88.10;101437.81;7361939;19;20038;-65
2023/09/24 10:42:33;;;;;;;8.40;0.85;;;;;;;19.49;87.64;101428.63;7352719;19;20021;-66
2023/09/24 10:45:06;;;;;;;8.75;0.73;;;;;;;19.53;87.97;101423.69;7354720;19;20526;-65
2023/09/24 10:47:44;;;;;;;10.15;1.35;;;;;;;19.55;87.89;101427.00;7356518;19;20022;-65
2023/09/24 10:50:16;;;;;;;9.43;0.98;;;;;;;19.53;88.06;101427.19;7358790;19;20011;-65
2023/09/24 10:52:59;;;;;;;10.90;1.00;;;;;;;19.54;88.03;101425.34;7357090;19;20018;-65
2023/09/24 10:55:36;;;;;;;9.43;1.00;;;;;;;19.51;88.28;101425.72;7354838;19;21300;-65
2023/09/24 10:58:14;;;;;;;7.90;1.02;;;;;;;19.50;88.38;101427.59;7354983;19;20515;-66
2023/09/24 11:00:45;;;;;;;12.20;1.33;;;;;;;19.49;88.30;101425.94;7360283;19;20329;-64
2023/09/24 11:03:13;;;;;;;4.78;0.73;;;;;;;19.52;88.26;101422.03;7357721;19;20177;-64
2023/09/24 11:05:41;;;;;;;6.80;0.65;;;;;;;19.54;88.49;101418.16;7355148;19;20018;-65
2023/09/24 11:08:09;;;;;;;9.88;0.82;;;;;;;19.58;88.02;101405.25;7351840;19;20026;-65
2023/09/24 11:10:37;;;;;;;6.60;0.70;;;;;;;19.61;88.14;101408.31;7355366;19;20338;-64
2023/09/24 11:13:13;;;;;;;6.50;0.80;;;;;;;19.66;88.15;101404.25;7361740;19;20018;-64
2023/09/24 11:16:02;;;;;;;10.38;0.88;;;;;;;19.66;88.42;101402.38;7362801;19;20017;-64
2023/09/24 11:18:32;;;;;;;12.93;1.15;;;;;;;19.67;88.32;101405.88;7366315;19;20015;-64
2023/09/24 11:20:59;;;;;;;10.73;1.05;;;;;;;19.66;88.16;101413.06;7361742;19;20025;-65
2023/09/24 11:23:35;;;;;;;9.90;1.17;;;;;;;19.66;87.92;101409.59;7358845;19;20017;-65
2023/09/24 11:26:02;;;;;;;12.73;1.35;;;;;;;19.64;88.28;101412.47;7359251;19;20486;-64
2023/09/24 11:28:32;;;;;;;6.80;0.95;;;;;;;19.64;88.00;101413.28;7359334;19;20022;-64
2023/09/24 11:30:59;;;;;;;12.13;1.05;;;;;;;19.64;88.22;101407.94;7360221;19;20022;-64